sensor_id;sensor_type;location;lat;lon;timestamp;P1;durP1;ratioP1;P2;durP2;ratioP2
62911;SDS011;49111;51.028;4.218;2022-09-01T00:00:44;2.25;;;1.48;;
62911;SDS011;49111;51.028;4.218;2022-09-01T00:03:13;2.03;;;1.35;;
62911;SDS011;49111;51.028;4.218;2022-09-01T00:05:40;3.40;;;1.15;;
62911;SDS011;49111;51.028;4.218;2022-09-01T00:08:06;5.38;;;1.52;;
62911;SDS011;49111;51.028;4.218;2022-09-01T00:10:32;2.85;;;1.08;;
62911;SDS011;49111;51.028;4.218;2022-09-01T00:12:58;4.07;;;1.67;;
62911;SDS011;49111;51.028;4.218;2022-09-01T00:15:24;2.70;;;1.33;;
62911;SDS011;49111;51.028;4.218;2022-09-01T00:17:50;3.15;;;1.30;;
62911;SDS011;49111;51.028;4.218;2022-09-01T00:20:16;3.75;;;1.65;;
62911;SDS011;49111;51.028;4.218;2022-09-01T00:22:42;4.00;;;1.45;;
62911;SDS011;49111;51.028;4.218;2022-09-01T00:25:08;3.28;;;1.48;;
62911;SDS011;49111;51.028;4.218;2022-09-01T00:27:34;4.55;;;1.70;;
62911;SDS011;49111;51.028;4.218;2022-09-01T00:30:00;2.83;;;1.23;;
62911;SDS011;49111;51.028;4.218;2022-09-01T00:32:26;3.90;;;1.73;;
62911;SDS011;49111;51.028;4.218;2022-09-01T00:34:52;2.30;;;1.30;;
62911;SDS011;49111;51.028;4.218;2022-09-01T00:37:18;2.45;;;1.50;;
62911;SDS011;49111;51.028;4.218;2022-09-01T00:39:44;1.95;;;1.40;;
62911;SDS011;49111;51.028;4.218;2022-09-01T00:42:10;1.90;;;1.40;;
62911;SDS011;49111;51.028;4.218;2022-09-01T00:44:36;6.05;;;1.35;;
62911;SDS011;49111;51.028;4.218;2022-09-01T00:47:02;3.47;;;1.33;;
62911;SDS011;49111;51.028;4.218;2022-09-01T00:49:35;2.40;;;1.45;;
62911;SDS011;49111;51.028;4.218;2022-09-01T00:54:33;5.35;;;2.05;;
62911;SDS011;49111;51.028;4.218;2022-09-01T00:57:04;2.92;;;1.55;;
62911;SDS011;49111;51.028;4.218;2022-09-01T00:59:32;2.58;;;1.20;;
62911;SDS011;49111;51.028;4.218;2022-09-01T01:02:00;3.45;;;1.27;;
62911;SDS011;49111;51.028;4.218;2022-09-01T01:04:27;3.22;;;1.55;;
62911;SDS011;49111;51.028;4.218;2022-09-01T01:06:54;2.70;;;1.45;;
62911;SDS011;49111;51.028;4.218;2022-09-01T01:09:26;2.42;;;1.70;;
62911;SDS011;49111;51.028;4.218;2022-09-01T01:11:58;3.50;;;1.17;;
62911;SDS011;49111;51.028;4.218;2022-09-01T01:14:26;3.42;;;1.50;;
62911;SDS011;49111;51.028;4.218;2022-09-01T01:16:56;2.25;;;1.40;;
62911;SDS011;49111;51.028;4.218;2022-09-01T01:25:37;2.97;;;1.48;;
62911;SDS011;49111;51.028;4.218;2022-09-01T01:28:08;2.22;;;1.20;;
62911;SDS011;49111;51.028;4.218;2022-09-01T01:30:38;3.40;;;1.40;;
62911;SDS011;49111;51.028;4.218;2022-09-01T01:33:07;1.98;;;1.23;;
62911;SDS011;49111;51.028;4.218;2022-09-01T01:35:34;4.32;;;1.40;;
62911;SDS011;49111;51.028;4.218;2022-09-01T01:38:01;2.83;;;1.52;;
62911;SDS011;49111;51.028;4.218;2022-09-01T01:40:32;2.80;;;1.58;;
62911;SDS011;49111;51.028;4.218;2022-09-01T01:42:58;4.00;;;1.45;;
62911;SDS011;49111;51.028;4.218;2022-09-01T01:45:26;2.75;;;1.10;;
62911;SDS011;49111;51.028;4.218;2022-09-01T01:47:53;2.55;;;1.50;;
62911;SDS011;49111;51.028;4.218;2022-09-01T01:50:25;3.92;;;1.27;;
62911;SDS011;49111;51.028;4.218;2022-09-01T01:52:54;1.43;;;1.20;;
62911;SDS011;49111;51.028;4.218;2022-09-01T01:55:24;1.50;;;1.10;;
62911;SDS011;49111;51.028;4.218;2022-09-01T01:57:54;1.95;;;1.30;;
62911;SDS011;49111;51.028;4.218;2022-09-01T02:00:22;1.75;;;1.20;;
62911;SDS011;49111;51.028;4.218;2022-09-01T02:02:51;2.42;;;1.63;;
62911;SDS011;49111;51.028;4.218;2022-09-01T02:05:22;3.22;;;1.38;;
62911;SDS011;49111;51.028;4.218;2022-09-01T02:07:52;2.40;;;1.52;;
62911;SDS011;49111;51.028;4.218;2022-09-01T02:10:26;3.00;;;1.60;;
62911;SDS011;49111;51.028;4.218;2022-09-01T02:12:55;2.35;;;1.38;;
62911;SDS011;49111;51.028;4.218;2022-09-01T02:15:26;3.97;;;1.90;;
62911;SDS011;49111;51.028;4.218;2022-09-01T02:17:51;2.47;;;1.30;;
62911;SDS011;49111;51.028;4.218;2022-09-01T02:20:25;2.22;;;1.30;;
62911;SDS011;49111;51.028;4.218;2022-09-01T02:22:57;3.75;;;1.50;;
62911;SDS011;49111;51.028;4.218;2022-09-01T02:25:40;3.53;;;2.17;;
62911;SDS011;49111;51.028;4.218;2022-09-01T02:28:09;2.53;;;1.60;;
62911;SDS011;49111;51.028;4.218;2022-09-01T02:30:42;4.50;;;1.85;;
62911;SDS011;49111;51.028;4.218;2022-09-01T02:33:10;2.97;;;1.42;;
62911;SDS011;49111;51.028;4.218;2022-09-01T02:35:48;1.65;;;1.40;;
62911;SDS011;49111;51.028;4.218;2022-09-01T02:38:16;1.92;;;1.20;;
62911;SDS011;49111;51.028;4.218;2022-09-01T02:40:48;3.63;;;1.52;;
62911;SDS011;49111;51.028;4.218;2022-09-01T02:43:15;4.32;;;1.23;;
62911;SDS011;49111;51.028;4.218;2022-09-01T02:45:48;2.47;;;1.48;;
62911;SDS011;49111;51.028;4.218;2022-09-01T02:48:20;2.90;;;1.15;;
62911;SDS011;49111;51.028;4.218;2022-09-01T02:50:48;1.95;;;1.50;;
62911;SDS011;49111;51.028;4.218;2022-09-01T02:53:14;2.13;;;1.20;;
62911;SDS011;49111;51.028;4.218;2022-09-01T02:55:43;4.38;;;1.70;;
62911;SDS011;49111;51.028;4.218;2022-09-01T02:58:09;2.58;;;1.40;;
62911;SDS011;49111;51.028;4.218;2022-09-01T03:00:45;5.57;;;1.70;;
62911;SDS011;49111;51.028;4.218;2022-09-01T03:03:17;3.40;;;1.40;;
62911;SDS011;49111;51.028;4.218;2022-09-01T03:05:44;2.47;;;1.58;;
62911;SDS011;49111;51.028;4.218;2022-09-01T03:08:10;3.78;;;1.52;;
62911;SDS011;49111;51.028;4.218;2022-09-01T03:10:40;4.13;;;1.60;;
62911;SDS011;49111;51.028;4.218;2022-09-01T03:13:09;3.78;;;2.13;;
62911;SDS011;49111;51.028;4.218;2022-09-01T03:15:37;3.90;;;2.00;;
62911;SDS011;49111;51.028;4.218;2022-09-01T03:18:04;3.78;;;1.85;;
62911;SDS011;49111;51.028;4.218;2022-09-01T03:20:32;3.83;;;1.77;;
62911;SDS011;49111;51.028;4.218;2022-09-01T03:23:00;3.58;;;2.00;;
62911;SDS011;49111;51.028;4.218;2022-09-01T03:25:32;4.17;;;2.00;;
62911;SDS011;49111;51.028;4.218;2022-09-01T03:27:59;2.75;;;2.10;;
62911;SDS011;49111;51.028;4.218;2022-09-01T03:30:31;3.20;;;1.80;;
62911;SDS011;49111;51.028;4.218;2022-09-01T03:32:59;2.88;;;1.85;;
62911;SDS011;49111;51.028;4.218;2022-09-01T03:35:27;2.30;;;2.00;;
62911;SDS011;49111;51.028;4.218;2022-09-01T03:37:57;3.92;;;1.98;;
62911;SDS011;49111;51.028;4.218;2022-09-01T03:40:25;3.75;;;1.80;;
62911;SDS011;49111;51.028;4.218;2022-09-01T03:42:54;3.28;;;1.70;;
62911;SDS011;49111;51.028;4.218;2022-09-01T03:45:20;2.38;;;1.42;;
62911;SDS011;49111;51.028;4.218;2022-09-01T03:47:50;4.38;;;2.20;;
62911;SDS011;49111;51.028;4.218;2022-09-01T03:50:19;4.88;;;2.00;;
62911;SDS011;49111;51.028;4.218;2022-09-01T03:52:48;5.50;;;2.67;;
62911;SDS011;49111;51.028;4.218;2022-09-01T03:55:21;3.65;;;2.50;;
62911;SDS011;49111;51.028;4.218;2022-09-01T03:57:51;3.97;;;2.03;;
62911;SDS011;49111;51.028;4.218;2022-09-01T04:00:18;4.07;;;2.30;;
62911;SDS011;49111;51.028;4.218;2022-09-01T04:02:48;4.90;;;2.13;;
62911;SDS011;49111;51.028;4.218;2022-09-01T04:05:16;4.70;;;1.98;;
62911;SDS011;49111;51.028;4.218;2022-09-01T04:07:49;6.10;;;2.67;;
62911;SDS011;49111;51.028;4.218;2022-09-01T04:10:16;4.47;;;2.50;;
62911;SDS011;49111;51.028;4.218;2022-09-01T04:12:43;5.25;;;1.80;;
62911;SDS011;49111;51.028;4.218;2022-09-01T04:15:11;3.60;;;1.63;;
62911;SDS011;49111;51.028;4.218;2022-09-01T04:17:39;6.88;;;1.98;;
62911;SDS011;49111;51.028;4.218;2022-09-01T04:20:24;5.10;;;2.10;;
62911;SDS011;49111;51.028;4.218;2022-09-01T04:22:49;3.70;;;2.33;;
62911;SDS011;49111;51.028;4.218;2022-09-01T04:25:16;4.30;;;2.42;;
62911;SDS011;49111;51.028;4.218;2022-09-01T04:27:49;4.82;;;2.25;;
62911;SDS011;49111;51.028;4.218;2022-09-01T04:30:21;3.58;;;2.03;;
62911;SDS011;49111;51.028;4.218;2022-09-01T04:32:53;7.78;;;3.33;;
62911;SDS011;49111;51.028;4.218;2022-09-01T04:35:21;4.45;;;2.47;;
62911;SDS011;49111;51.028;4.218;2022-09-01T04:38:00;5.60;;;2.55;;
62911;SDS011;49111;51.028;4.218;2022-09-01T04:40:27;5.93;;;2.40;;
62911;SDS011;49111;51.028;4.218;2022-09-01T04:42:53;4.32;;;2.80;;
62911;SDS011;49111;51.028;4.218;2022-09-01T04:45:19;6.63;;;2.55;;
62911;SDS011;49111;51.028;4.218;2022-09-01T04:47:52;4.47;;;2.50;;
62911;SDS011;49111;51.028;4.218;2022-09-01T04:50:18;3.55;;;2.50;;
62911;SDS011;49111;51.028;4.218;2022-09-01T04:53:04;4.22;;;2.17;;
62911;SDS011;49111;51.028;4.218;2022-09-01T04:55:37;3.97;;;2.25;;
62911;SDS011;49111;51.028;4.218;2022-09-01T04:58:07;3.83;;;2.50;;
62911;SDS011;49111;51.028;4.218;2022-09-01T05:00:37;4.70;;;2.70;;
62911;SDS011;49111;51.028;4.218;2022-09-01T05:03:04;5.68;;;2.80;;
62911;SDS011;49111;51.028;4.218;2022-09-01T05:05:49;4.20;;;2.33;;
62911;SDS011;49111;51.028;4.218;2022-09-01T05:08:18;9.18;;;2.75;;
62911;SDS011;49111;51.028;4.218;2022-09-01T05:10:48;6.43;;;2.30;;
62911;SDS011;49111;51.028;4.218;2022-09-01T05:13:24;7.20;;;2.70;;
62911;SDS011;49111;51.028;4.218;2022-09-01T05:16:03;4.70;;;3.10;;
62911;SDS011;49111;51.028;4.218;2022-09-01T05:18:31;5.97;;;3.30;;
62911;SDS011;49111;51.028;4.218;2022-09-01T05:20:58;7.28;;;2.65;;
62911;SDS011;49111;51.028;4.218;2022-09-01T05:23:34;6.43;;;3.15;;
62911;SDS011;49111;51.028;4.218;2022-09-01T05:26:01;5.60;;;2.83;;
62911;SDS011;49111;51.028;4.218;2022-09-01T05:28:31;7.07;;;3.15;;
62911;SDS011;49111;51.028;4.218;2022-09-01T05:30:59;7.72;;;3.10;;
62911;SDS011;49111;51.028;4.218;2022-09-01T05:33:28;8.02;;;2.88;;
62911;SDS011;49111;51.028;4.218;2022-09-01T05:35:55;4.80;;;2.58;;
62911;SDS011;49111;51.028;4.218;2022-09-01T05:38:24;5.25;;;3.28;;
62911;SDS011;49111;51.028;4.218;2022-09-01T05:40:55;5.90;;;2.63;;
62911;SDS011;49111;51.028;4.218;2022-09-01T05:43:22;6.07;;;2.90;;
62911;SDS011;49111;51.028;4.218;2022-09-01T05:45:51;5.30;;;2.60;;
62911;SDS011;49111;51.028;4.218;2022-09-01T05:48:18;8.48;;;3.38;;
62911;SDS011;49111;51.028;4.218;2022-09-01T05:50:46;6.35;;;3.03;;
62911;SDS011;49111;51.028;4.218;2022-09-01T05:53:14;5.15;;;3.13;;
62911;SDS011;49111;51.028;4.218;2022-09-01T05:55:46;9.70;;;3.22;;
62911;SDS011;49111;51.028;4.218;2022-09-01T05:58:14;6.72;;;3.17;;
62911;SDS011;49111;51.028;4.218;2022-09-01T06:00:42;5.93;;;3.55;;
62911;SDS011;49111;51.028;4.218;2022-09-01T06:03:11;6.28;;;2.95;;
62911;SDS011;49111;51.028;4.218;2022-09-01T06:05:41;12.20;;;3.03;;
62911;SDS011;49111;51.028;4.218;2022-09-01T06:08:09;9.52;;;3.38;;
62911;SDS011;49111;51.028;4.218;2022-09-01T06:10:38;8.65;;;4.30;;
62911;SDS011;49111;51.028;4.218;2022-09-01T06:13:06;8.32;;;4.10;;
62911;SDS011;49111;51.028;4.218;2022-09-01T06:15:33;9.80;;;4.35;;
62911;SDS011;49111;51.028;4.218;2022-09-01T06:18:07;5.50;;;3.08;;
62911;SDS011;49111;51.028;4.218;2022-09-01T06:20:43;8.25;;;4.05;;
62911;SDS011;49111;51.028;4.218;2022-09-01T06:23:11;9.13;;;5.53;;
62911;SDS011;49111;51.028;4.218;2022-09-01T06:25:43;8.57;;;4.40;;
62911;SDS011;49111;51.028;4.218;2022-09-01T06:30:42;9.65;;;4.47;;
62911;SDS011;49111;51.028;4.218;2022-09-01T06:33:10;10.07;;;4.85;;
62911;SDS011;49111;51.028;4.218;2022-09-01T06:35:41;8.93;;;4.40;;
62911;SDS011;49111;51.028;4.218;2022-09-01T06:38:10;7.25;;;4.35;;
62911;SDS011;49111;51.028;4.218;2022-09-01T06:40:40;7.57;;;4.68;;
62911;SDS011;49111;51.028;4.218;2022-09-01T06:43:07;9.07;;;4.75;;
62911;SDS011;49111;51.028;4.218;2022-09-01T06:45:42;10.65;;;5.45;;
62911;SDS011;49111;51.028;4.218;2022-09-01T06:48:14;9.13;;;4.75;;
62911;SDS011;49111;51.028;4.218;2022-09-01T06:50:42;8.35;;;5.15;;
62911;SDS011;49111;51.028;4.218;2022-09-01T06:53:10;8.93;;;4.85;;
62911;SDS011;49111;51.028;4.218;2022-09-01T06:55:40;8.93;;;4.80;;
62911;SDS011;49111;51.028;4.218;2022-09-01T06:58:08;11.23;;;5.30;;
62911;SDS011;49111;51.028;4.218;2022-09-01T07:00:37;8.60;;;5.07;;
62911;SDS011;49111;51.028;4.218;2022-09-01T07:03:08;8.75;;;4.97;;
62911;SDS011;49111;51.028;4.218;2022-09-01T07:05:53;12.35;;;6.13;;
62911;SDS011;49111;51.028;4.218;2022-09-01T07:08:34;11.35;;;5.72;;
62911;SDS011;49111;51.028;4.218;2022-09-01T07:11:16;11.38;;;5.97;;
62911;SDS011;49111;51.028;4.218;2022-09-01T07:13:50;10.15;;;6.15;;
62911;SDS011;49111;51.028;4.218;2022-09-01T07:16:21;13.38;;;5.45;;
62911;SDS011;49111;51.028;4.218;2022-09-01T07:18:48;10.48;;;5.88;;
62911;SDS011;49111;51.028;4.218;2022-09-01T07:21:15;8.77;;;4.93;;
62911;SDS011;49111;51.028;4.218;2022-09-01T07:23:44;7.90;;;5.10;;
62911;SDS011;49111;51.028;4.218;2022-09-01T07:26:11;9.07;;;5.88;;
62911;SDS011;49111;51.028;4.218;2022-09-01T07:28:43;11.77;;;6.93;;
62911;SDS011;49111;51.028;4.218;2022-09-01T07:31:16;10.98;;;6.00;;
62911;SDS011;49111;51.028;4.218;2022-09-01T07:33:47;13.07;;;6.90;;
62911;SDS011;49111;51.028;4.218;2022-09-01T07:36:16;11.30;;;5.40;;
62911;SDS011;49111;51.028;4.218;2022-09-01T07:38:43;9.68;;;5.45;;
62911;SDS011;49111;51.028;4.218;2022-09-01T07:41:10;9.50;;;5.93;;
62911;SDS011;49111;51.028;4.218;2022-09-01T07:43:55;9.32;;;5.70;;
62911;SDS011;49111;51.028;4.218;2022-09-01T07:46:44;8.68;;;5.70;;
62911;SDS011;49111;51.028;4.218;2022-09-01T07:49:18;10.23;;;5.63;;
62911;SDS011;49111;51.028;4.218;2022-09-01T07:51:44;10.18;;;6.15;;
62911;SDS011;49111;51.028;4.218;2022-09-01T07:54:17;8.93;;;4.78;;
62911;SDS011;49111;51.028;4.218;2022-09-01T07:56:43;9.43;;;5.53;;
62911;SDS011;49111;51.028;4.218;2022-09-01T07:59:10;7.60;;;4.80;;
62911;SDS011;49111;51.028;4.218;2022-09-01T08:01:45;7.82;;;4.60;;
62911;SDS011;49111;51.028;4.218;2022-09-01T08:04:12;9.35;;;5.07;;
62911;SDS011;49111;51.028;4.218;2022-09-01T08:06:39;11.10;;;4.97;;
62911;SDS011;49111;51.028;4.218;2022-09-01T08:09:07;8.32;;;4.68;;
62911;SDS011;49111;51.028;4.218;2022-09-01T08:16:09;8.02;;;4.70;;
62911;SDS011;49111;51.028;4.218;2022-09-01T08:18:35;7.32;;;4.85;;
62911;SDS011;49111;51.028;4.218;2022-09-01T08:21:07;10.00;;;5.10;;
62911;SDS011;49111;51.028;4.218;2022-09-01T08:23:44;8.48;;;5.85;;
62911;SDS011;49111;51.028;4.218;2022-09-01T08:26:13;8.48;;;4.72;;
62911;SDS011;49111;51.028;4.218;2022-09-01T08:28:41;8.23;;;4.13;;
62911;SDS011;49111;51.028;4.218;2022-09-01T08:31:08;12.07;;;5.22;;
62911;SDS011;49111;51.028;4.218;2022-09-01T08:33:36;9.52;;;5.32;;
62911;SDS011;49111;51.028;4.218;2022-09-01T08:36:05;7.68;;;4.57;;
62911;SDS011;49111;51.028;4.218;2022-09-01T08:38:32;7.35;;;4.68;;
62911;SDS011;49111;51.028;4.218;2022-09-01T08:40:58;8.25;;;4.70;;
62911;SDS011;49111;51.028;4.218;2022-09-01T08:43:34;7.85;;;4.07;;
62911;SDS011;49111;51.028;4.218;2022-09-01T08:46:27;7.90;;;4.45;;
62911;SDS011;49111;51.028;4.218;2022-09-01T08:49:05;10.38;;;5.20;;
62911;SDS011;49111;51.028;4.218;2022-09-01T08:58:11;6.63;;;3.70;;
62911;SDS011;49111;51.028;4.218;2022-09-01T09:01:00;8.15;;;3.90;;
62911;SDS011;49111;51.028;4.218;2022-09-01T09:03:42;11.23;;;4.28;;
62911;SDS011;49111;51.028;4.218;2022-09-01T09:06:36;6.78;;;3.92;;
62911;SDS011;49111;51.028;4.218;2022-09-01T09:09:12;7.13;;;3.88;;
62911;SDS011;49111;51.028;4.218;2022-09-01T09:17:03;5.55;;;3.40;;
62911;SDS011;49111;51.028;4.218;2022-09-01T09:19:30;8.63;;;3.58;;
62911;SDS011;49111;51.028;4.218;2022-09-01T09:22:05;7.05;;;3.00;;
62911;SDS011;49111;51.028;4.218;2022-09-01T09:24:36;5.63;;;3.35;;
62911;SDS011;49111;51.028;4.218;2022-09-01T09:30:04;7.65;;;3.38;;
62911;SDS011;49111;51.028;4.218;2022-09-01T09:32:42;5.28;;;2.90;;
62911;SDS011;49111;51.028;4.218;2022-09-01T09:35:19;5.53;;;2.83;;
62911;SDS011;49111;51.028;4.218;2022-09-01T09:37:46;4.97;;;3.13;;
62911;SDS011;49111;51.028;4.218;2022-09-01T09:40:16;5.88;;;3.42;;
62911;SDS011;49111;51.028;4.218;2022-09-01T09:45:33;6.00;;;3.07;;
62911;SDS011;49111;51.028;4.218;2022-09-01T09:50:54;4.28;;;3.22;;
62911;SDS011;49111;51.028;4.218;2022-09-01T09:58:22;5.10;;;3.10;;
62911;SDS011;49111;51.028;4.218;2022-09-01T10:03:52;4.90;;;2.90;;
62911;SDS011;49111;51.028;4.218;2022-09-01T10:06:31;5.10;;;2.80;;
62911;SDS011;49111;51.028;4.218;2022-09-01T10:09:02;4.07;;;2.70;;
62911;SDS011;49111;51.028;4.218;2022-09-01T10:11:40;5.97;;;4.35;;
62911;SDS011;49111;51.028;4.218;2022-09-01T10:16:46;6.85;;;4.18;;
62911;SDS011;49111;51.028;4.218;2022-09-01T10:19:17;4.90;;;2.40;;
62911;SDS011;49111;51.028;4.218;2022-09-01T10:21:44;5.57;;;2.65;;
62911;SDS011;49111;51.028;4.218;2022-09-01T10:24:18;4.68;;;3.00;;
62911;SDS011;49111;51.028;4.218;2022-09-01T10:26:53;5.30;;;2.23;;
62911;SDS011;49111;51.028;4.218;2022-09-01T10:32:07;5.10;;;2.08;;
62911;SDS011;49111;51.028;4.218;2022-09-01T10:34:36;4.68;;;2.45;;
62911;SDS011;49111;51.028;4.218;2022-09-01T10:37:04;3.35;;;1.88;;
62911;SDS011;49111;51.028;4.218;2022-09-01T10:39:31;3.33;;;1.75;;
62911;SDS011;49111;51.028;4.218;2022-09-01T10:41:58;4.53;;;1.80;;
62911;SDS011;49111;51.028;4.218;2022-09-01T10:44:36;4.45;;;2.05;;
62911;SDS011;49111;51.028;4.218;2022-09-01T10:47:26;2.75;;;1.90;;
62911;SDS011;49111;51.028;4.218;2022-09-01T10:50:30;2.83;;;1.83;;
62911;SDS011;49111;51.028;4.218;2022-09-01T10:53:00;6.35;;;1.60;;
62911;SDS011;49111;51.028;4.218;2022-09-01T10:55:35;1.88;;;1.63;;
62911;SDS011;49111;51.028;4.218;2022-09-01T11:01:08;2.88;;;1.70;;
62911;SDS011;49111;51.028;4.218;2022-09-01T11:09:26;3.15;;;2.00;;
62911;SDS011;49111;51.028;4.218;2022-09-01T11:12:07;2.40;;;1.95;;
62911;SDS011;49111;51.028;4.218;2022-09-01T11:14:46;4.63;;;2.25;;
62911;SDS011;49111;51.028;4.218;2022-09-01T11:17:27;2.60;;;1.83;;
62911;SDS011;49111;51.028;4.218;2022-09-01T11:20:33;2.88;;;1.92;;
62911;SDS011;49111;51.028;4.218;2022-09-01T11:23:03;4.15;;;1.90;;
62911;SDS011;49111;51.028;4.218;2022-09-01T11:30:44;2.40;;;1.77;;
62911;SDS011;49111;51.028;4.218;2022-09-01T11:36:01;4.13;;;2.03;;
62911;SDS011;49111;51.028;4.218;2022-09-01T11:38:31;3.30;;;1.80;;
62911;SDS011;49111;51.028;4.218;2022-09-01T11:41:19;3.28;;;2.33;;
62911;SDS011;49111;51.028;4.218;2022-09-01T11:43:49;3.65;;;2.25;;
62911;SDS011;49111;51.028;4.218;2022-09-01T11:46:27;3.55;;;1.98;;
62911;SDS011;49111;51.028;4.218;2022-09-01T11:48:59;2.30;;;1.55;;
62911;SDS011;49111;51.028;4.218;2022-09-01T11:52:05;2.58;;;1.80;;
62911;SDS011;49111;51.028;4.218;2022-09-01T11:54:25;4.90;;;2.05;;
62911;SDS011;49111;51.028;4.218;2022-09-01T11:56:54;3.10;;;2.08;;
62911;SDS011;49111;51.028;4.218;2022-09-01T11:59:33;5.00;;;1.90;;
62911;SDS011;49111;51.028;4.218;2022-09-01T12:02:02;2.63;;;1.60;;
62911;SDS011;49111;51.028;4.218;2022-09-01T12:04:30;2.28;;;1.60;;
62911;SDS011;49111;51.028;4.218;2022-09-01T12:09:42;2.03;;;1.70;;
62911;SDS011;49111;51.028;4.218;2022-09-01T12:14:55;3.15;;;1.63;;
62911;SDS011;49111;51.028;4.218;2022-09-01T12:17:22;2.55;;;2.05;;
62911;SDS011;49111;51.028;4.218;2022-09-01T12:19:48;2.75;;;1.83;;
62911;SDS011;49111;51.028;4.218;2022-09-01T12:22:14;3.70;;;1.75;;
62911;SDS011;49111;51.028;4.218;2022-09-01T12:24:45;2.50;;;1.55;;
62911;SDS011;49111;51.028;4.218;2022-09-01T12:27:13;1.60;;;1.50;;
62911;SDS011;49111;51.028;4.218;2022-09-01T12:29:40;4.40;;;1.70;;
62911;SDS011;49111;51.028;4.218;2022-09-01T12:32:06;4.63;;;1.88;;
62911;SDS011;49111;51.028;4.218;2022-09-01T12:37:31;2.17;;;1.60;;
62911;SDS011;49111;51.028;4.218;2022-09-01T12:39:58;2.95;;;1.83;;
62911;SDS011;49111;51.028;4.218;2022-09-01T12:45:04;2.78;;;1.75;;
62911;SDS011;49111;51.028;4.218;2022-09-01T12:49:58;2.33;;;1.90;;
62911;SDS011;49111;51.028;4.218;2022-09-01T12:52:28;3.25;;;1.45;;
62911;SDS011;49111;51.028;4.218;2022-09-01T12:57:45;6.53;;;1.85;;
62911;SDS011;49111;51.028;4.218;2022-09-01T13:00:24;3.05;;;1.60;;
62911;SDS011;49111;51.028;4.218;2022-09-01T13:05:23;2.22;;;1.58;;
62911;SDS011;49111;51.028;4.218;2022-09-01T13:07:53;4.90;;;2.30;;
62911;SDS011;49111;51.028;4.218;2022-09-01T13:10:23;3.95;;;2.08;;
62911;SDS011;49111;51.028;4.218;2022-09-01T13:12:52;4.87;;;2.03;;
62911;SDS011;49111;51.028;4.218;2022-09-01T13:15:18;4.03;;;1.80;;
62911;SDS011;49111;51.028;4.218;2022-09-01T13:17:45;3.17;;;2.05;;
62911;SDS011;49111;51.028;4.218;2022-09-01T13:20:11;3.25;;;1.70;;
62911;SDS011;49111;51.028;4.218;2022-09-01T13:22:38;3.13;;;2.25;;
62911;SDS011;49111;51.028;4.218;2022-09-01T13:25:06;5.10;;;1.90;;
62911;SDS011;49111;51.028;4.218;2022-09-01T13:27:35;4.30;;;2.10;;
62911;SDS011;49111;51.028;4.218;2022-09-01T13:30:02;2.35;;;1.60;;
62911;SDS011;49111;51.028;4.218;2022-09-01T13:32:30;5.10;;;1.80;;
62911;SDS011;49111;51.028;4.218;2022-09-01T13:34:57;2.78;;;1.92;;
62911;SDS011;49111;51.028;4.218;2022-09-01T13:37:22;2.70;;;2.10;;
62911;SDS011;49111;51.028;4.218;2022-09-01T13:39:48;4.60;;;2.03;;
62911;SDS011;49111;51.028;4.218;2022-09-01T13:42:15;2.45;;;1.67;;
62911;SDS011;49111;51.028;4.218;2022-09-01T13:44:41;2.78;;;1.50;;
62911;SDS011;49111;51.028;4.218;2022-09-01T13:47:08;2.28;;;1.95;;
62911;SDS011;49111;51.028;4.218;2022-09-01T13:49:33;3.55;;;2.05;;
62911;SDS011;49111;51.028;4.218;2022-09-01T13:51:59;3.13;;;1.60;;
62911;SDS011;49111;51.028;4.218;2022-09-01T13:54:25;4.53;;;2.38;;
62911;SDS011;49111;51.028;4.218;2022-09-01T13:56:51;3.13;;;2.00;;
62911;SDS011;49111;51.028;4.218;2022-09-01T13:59:17;4.22;;;2.10;;
62911;SDS011;49111;51.028;4.218;2022-09-01T14:01:42;3.45;;;2.00;;
62911;SDS011;49111;51.028;4.218;2022-09-01T14:04:08;2.15;;;1.77;;
62911;SDS011;49111;51.028;4.218;2022-09-01T14:06:38;3.13;;;2.13;;
62911;SDS011;49111;51.028;4.218;2022-09-01T14:09:05;3.88;;;2.10;;
62911;SDS011;49111;51.028;4.218;2022-09-01T14:11:31;2.78;;;1.92;;
62911;SDS011;49111;51.028;4.218;2022-09-01T14:13:56;4.40;;;2.10;;
62911;SDS011;49111;51.028;4.218;2022-09-01T14:16:22;4.72;;;1.92;;
62911;SDS011;49111;51.028;4.218;2022-09-01T14:18:48;5.07;;;1.80;;
62911;SDS011;49111;51.028;4.218;2022-09-01T14:21:14;3.17;;;1.85;;
62911;SDS011;49111;51.028;4.218;2022-09-01T14:23:41;4.53;;;2.08;;
62911;SDS011;49111;51.028;4.218;2022-09-01T14:26:09;3.08;;;1.70;;
62911;SDS011;49111;51.028;4.218;2022-09-01T14:28:36;4.97;;;1.95;;
62911;SDS011;49111;51.028;4.218;2022-09-01T14:31:10;2.65;;;1.90;;
62911;SDS011;49111;51.028;4.218;2022-09-01T14:33:38;4.18;;;2.03;;
62911;SDS011;49111;51.028;4.218;2022-09-01T14:36:05;3.33;;;2.30;;
62911;SDS011;49111;51.028;4.218;2022-09-01T14:38:32;2.75;;;1.77;;
62911;SDS011;49111;51.028;4.218;2022-09-01T14:40:59;2.38;;;1.83;;
62911;SDS011;49111;51.028;4.218;2022-09-01T14:43:26;7.82;;;1.95;;
62911;SDS011;49111;51.028;4.218;2022-09-01T14:46:05;2.40;;;1.48;;
62911;SDS011;49111;51.028;4.218;2022-09-01T14:48:33;3.78;;;1.85;;
62911;SDS011;49111;51.028;4.218;2022-09-01T14:50:59;4.53;;;1.70;;
62911;SDS011;49111;51.028;4.218;2022-09-01T14:53:26;3.38;;;1.67;;
62911;SDS011;49111;51.028;4.218;2022-09-01T14:55:54;4.03;;;2.20;;
62911;SDS011;49111;51.028;4.218;2022-09-01T14:58:22;3.80;;;1.60;;
62911;SDS011;49111;51.028;4.218;2022-09-01T15:00:49;2.33;;;1.60;;
62911;SDS011;49111;51.028;4.218;2022-09-01T15:03:15;2.63;;;1.55;;
62911;SDS011;49111;51.028;4.218;2022-09-01T15:05:41;2.33;;;1.75;;
62911;SDS011;49111;51.028;4.218;2022-09-01T15:08:07;2.35;;;1.33;;
62911;SDS011;49111;51.028;4.218;2022-09-01T15:10:34;3.15;;;1.50;;
62911;SDS011;49111;51.028;4.218;2022-09-01T15:13:00;2.33;;;1.80;;
62911;SDS011;49111;51.028;4.218;2022-09-01T15:15:27;2.95;;;1.90;;
62911;SDS011;49111;51.028;4.218;2022-09-01T15:17:53;2.75;;;1.38;;
62911;SDS011;49111;51.028;4.218;2022-09-01T15:20:20;2.75;;;1.67;;
62911;SDS011;49111;51.028;4.218;2022-09-01T15:23:05;5.03;;;1.60;;
62911;SDS011;49111;51.028;4.218;2022-09-01T15:25:31;2.38;;;1.58;;
62911;SDS011;49111;51.028;4.218;2022-09-01T15:27:57;1.35;;;1.10;;
62911;SDS011;49111;51.028;4.218;2022-09-01T15:30:23;2.45;;;1.20;;
62911;SDS011;49111;51.028;4.218;2022-09-01T15:32:53;1.90;;;1.33;;
62911;SDS011;49111;51.028;4.218;2022-09-01T15:35:20;2.03;;;1.48;;
62911;SDS011;49111;51.028;4.218;2022-09-01T15:37:46;5.10;;;1.33;;
62911;SDS011;49111;51.028;4.218;2022-09-01T15:40:13;3.97;;;1.58;;
62911;SDS011;49111;51.028;4.218;2022-09-01T15:42:39;2.97;;;1.25;;
62911;SDS011;49111;51.028;4.218;2022-09-01T15:45:06;4.50;;;1.65;;
62911;SDS011;49111;51.028;4.218;2022-09-01T15:47:34;1.88;;;1.38;;
62911;SDS011;49111;51.028;4.218;2022-09-01T15:50:02;2.53;;;1.40;;
62911;SDS011;49111;51.028;4.218;2022-09-01T15:52:31;5.25;;;1.63;;
62911;SDS011;49111;51.028;4.218;2022-09-01T15:54:57;2.95;;;1.40;;
62911;SDS011;49111;51.028;4.218;2022-09-01T15:57:23;5.22;;;1.58;;
62911;SDS011;49111;51.028;4.218;2022-09-01T15:59:49;3.90;;;1.10;;
62911;SDS011;49111;51.028;4.218;2022-09-01T16:02:15;5.47;;;1.25;;
62911;SDS011;49111;51.028;4.218;2022-09-01T16:04:42;2.97;;;1.70;;
62911;SDS011;49111;51.028;4.218;2022-09-01T16:07:08;1.92;;;1.25;;
62911;SDS011;49111;51.028;4.218;2022-09-01T16:09:34;1.75;;;1.40;;
62911;SDS011;49111;51.028;4.218;2022-09-01T16:12:01;2.90;;;1.40;;
62911;SDS011;49111;51.028;4.218;2022-09-01T16:14:27;3.58;;;1.60;;
62911;SDS011;49111;51.028;4.218;2022-09-01T16:17:01;2.45;;;1.25;;
62911;SDS011;49111;51.028;4.218;2022-09-01T16:24:43;4.15;;;1.70;;
62911;SDS011;49111;51.028;4.218;2022-09-01T16:27:15;6.72;;;1.65;;
62911;SDS011;49111;51.028;4.218;2022-09-01T16:32:13;2.92;;;1.77;;
62911;SDS011;49111;51.028;4.218;2022-09-01T16:34:41;2.22;;;1.02;;
62911;SDS011;49111;51.028;4.218;2022-09-01T16:37:22;3.20;;;1.27;;